Time;durP1;ratioP1;P1;durP2;ratioP2;P2;SDS_P1;SDS_P2;PMS_P1;PMS_P2;Temp;Humidity;BMP_temperature;BMP_pressure;BME280_temperature;BME280_humidity;BME280_pressure;Samples;Min_cycle;Max_cycle;Signal;HPM_P1;HPM_P2
2023/03/22 00:02:25;;;;;;;;;;;11.70;99.90;;;;;;7330546;19;109715;-62
2023/03/22 00:04:52;;;;;;;;;;;11.60;99.90;;;;;;7340113;19;110087;-62
2023/03/22 00:07:19;;;;;;;;;;;11.60;99.90;;;;;;7339490;19;110408;-63
2023/03/22 00:09:46;;;;;;;;;;;11.60;99.90;;;;;;7335612;19;108568;-62
2023/03/22 00:12:13;;;;;;;;;;;11.60;99.90;;;;;;7341668;19;108912;-62
2023/03/22 00:14:41;;;;;;;;;;;11.50;99.90;;;;;;7336719;19;109120;-62
2023/03/22 00:17:08;;;;;;;;;;;11.50;99.90;;;;;;7340665;19;109820;-62
2023/03/22 00:19:36;;;;;;;;;;;11.50;99.90;;;;;;7337189;19;109237;-62
2023/03/22 00:22:05;;;;;;;;;;;11.50;99.90;;;;;;7337664;19;110512;-62
2023/03/22 00:24:32;;;;;;;;;;;11.50;99.90;;;;;;7338837;19;109428;-62
2023/03/22 00:26:59;;;;;;;;;;;11.50;99.90;;;;;;7344418;19;109382;-62
2023/03/22 00:29:26;;;;;;;;;;;11.50;99.90;;;;;;7337859;19;109257;-62
2023/03/22 00:31:54;;;;;;;;;;;11.50;99.90;;;;;;7334890;19;109659;-62
2023/03/22 00:34:22;;;;;;;;;;;11.50;99.90;;;;;;7336157;19;109201;-63
2023/03/22 00:36:50;;;;;;;;;;;11.50;99.90;;;;;;7337530;19;109846;-62
2023/03/22 00:39:20;;;;;;;;;;;11.50;99.90;;;;;;7339208;19;109610;-62
2023/03/22 00:41:47;;;;;;;;;;;11.50;99.90;;;;;;7340813;19;109385;-62
2023/03/22 00:44:14;;;;;;;;;;;11.50;99.90;;;;;;7340412;19;108580;-62
2023/03/22 00:46:41;;;;;;;;;;;11.60;99.90;;;;;;7337749;19;109252;-62
2023/03/22 00:49:09;;;;;;;;;;;11.60;99.90;;;;;;7342461;19;110242;-62
2023/03/22 00:51:36;;;;;;;;;;;11.60;99.90;;;;;;7336413;19;108675;-62
2023/03/22 00:54:03;;;;;;;;;;;11.60;99.90;;;;;;7336231;19;109358;-62
2023/03/22 00:56:32;;;;;;;;;;;11.60;99.90;;;;;;7338130;19;109823;-63
2023/03/22 00:58:59;;;;;;;;;;;11.60;99.90;;;;;;7334447;19;108770;-62
2023/03/22 01:01:26;;;;;;;;;;;11.60;99.90;;;;;;7337123;19;109432;-63
2023/03/22 01:03:54;;;;;;;;;;;11.70;99.90;;;;;;7335479;19;108555;-62
2023/03/22 01:06:21;;;;;;;;;;;11.60;99.90;;;;;;7336111;19;112936;-62
2023/03/22 01:08:49;;;;;;;;;;;11.70;99.90;;;;;;7339038;19;109325;-62
2023/03/22 01:11:17;;;;;;;;;;;11.70;99.90;;;;;;7345716;19;108582;-62
2023/03/22 01:13:44;;;;;;;;;;;11.70;99.90;;;;;;7337945;19;110105;-62
2023/03/22 01:16:11;;;;;;;;;;;11.70;99.90;;;;;;7337224;19;109737;-62
2023/03/22 01:18:38;;;;;;;;;;;11.70;99.90;;;;;;7337368;19;110264;-62
2023/03/22 01:21:05;;;;;;;;;;;11.70;99.90;;;;;;7335299;19;109371;-62
2023/03/22 01:23:33;;;;;;;;;;;11.70;99.90;;;;;;7337438;19;109513;-62
2023/03/22 01:26:00;;;;;;;;;;;11.70;99.90;;;;;;7332756;19;109095;-62
2023/03/22 01:28:27;;;;;;;;;;;11.70;99.90;;;;;;7334850;19;112306;-62
2023/03/22 01:30:54;;;;;;;;;;;11.70;99.90;;;;;;7343132;19;108850;-62
2023/03/22 01:33:21;;;;;;;;;;;11.80;99.90;;;;;;7335605;19;109701;-62
2023/03/22 01:35:49;;;;;;;;;;;11.80;99.90;;;;;;7332650;19;114292;-62
2023/03/22 01:38:18;;;;;;;;;;;11.70;99.90;;;;;;7332657;19;108467;-62
2023/03/22 01:40:45;;;;;;;;;;;11.70;99.90;;;;;;7338334;19;109149;-62
2023/03/22 01:43:13;;;;;;;;;;;11.80;99.90;;;;;;7330708;19;108782;-62
2023/03/22 01:45:41;;;;;;;;;;;11.80;99.90;;;;;;7337136;19;108547;-62
2023/03/22 01:48:12;;;;;;;;;;;11.80;99.90;;;;;;7335409;19;111460;-62
2023/03/22 01:50:41;;;;;;;;;;;11.80;99.90;;;;;;7333796;19;108818;-62
2023/03/22 01:53:09;;;;;;;;;;;11.90;99.90;;;;;;7341396;19;111017;-62
2023/03/22 01:55:37;;;;;;;;;;;11.80;99.90;;;;;;7335562;19;108987;-62
2023/03/22 01:58:04;;;;;;;;;;;11.80;99.90;;;;;;7337789;19;110796;-62
2023/03/22 02:00:32;;;;;;;;;;;11.80;99.90;;;;;;7335020;19;110193;-62
2023/03/22 02:02:59;;;;;;;;;;;11.80;99.90;;;;;;7337116;19;108982;-62
2023/03/22 02:05:26;;;;;;;;;;;11.80;99.90;;;;;;7333173;19;108719;-62
2023/03/22 02:07:54;;;;;;;;;;;11.80;99.90;;;;;;7333078;19;109485;-62
2023/03/22 02:10:23;;;;;;;;;;;11.90;99.90;;;;;;7334136;19;109959;-62
2023/03/22 02:13:01;;;;;;;;;;;11.80;99.90;;;;;;7334742;19;109543;-62
2023/03/22 02:15:38;;;;;;;;;;;11.80;99.90;;;;;;7338109;19;110598;-62
2023/03/22 02:18:15;;;;;;;;;;;11.90;99.90;;;;;;7334872;19;108520;-62
2023/03/22 02:20:45;;;;;;;;;;;11.80;99.90;;;;;;7332374;19;109937;-62
2023/03/22 02:23:25;;;;;;;;;;;11.90;99.90;;;;;;7336621;19;109749;-62
2023/03/22 02:26:04;;;;;;;;;;;11.80;99.90;;;;;;7333071;19;109121;-62
2023/03/22 02:28:35;;;;;;;;;;;11.80;99.90;;;;;;7334092;19;109113;-62
2023/03/22 02:31:12;;;;;;;;;;;11.80;99.90;;;;;;7331797;19;110925;-62
2023/03/22 02:33:57;;;;;;;;;;;11.80;99.90;;;;;;7330596;19;109020;-62
2023/03/22 02:36:25;;;;;;;;;;;11.80;99.90;;;;;;7334052;19;109659;-63
2023/03/22 02:38:56;;;;;;;;;;;11.80;99.90;;;;;;7339595;19;109818;-63
2023/03/22 02:41:32;;;;;;;;;;;11.80;99.90;;;;;;7334387;19;109790;-62
2023/03/22 02:43:59;;;;;;;;;;;11.80;99.90;;;;;;7330241;19;109659;-62
2023/03/22 02:46:36;;;;;;;;;;;11.80;99.90;;;;;;7336607;19;109458;-62
2023/03/22 02:49:14;;;;;;;;;;;11.80;99.90;;;;;;7335259;19;110168;-63
2023/03/22 02:51:44;;;;;;;;;;;11.80;99.90;;;;;;7332955;19;109492;-62
2023/03/22 02:54:17;;;;;;;;;;;11.80;99.90;;;;;;7326258;19;108595;-62
2023/03/22 02:57:10;;;;;;;;;;;11.80;99.90;;;;;;7329141;19;109872;-66
2023/03/22 02:59:39;;;;;;;;;;;11.70;99.90;;;;;;7329774;19;108825;-63
2023/03/22 03:02:08;;;;;;;;;;;11.80;99.90;;;;;;7335730;19;109658;-63
2023/03/22 03:04:37;;;;;;;;;;;11.80;99.90;;;;;;7333305;19;108776;-62
2023/03/22 03:07:08;;;;;;;;;;;11.80;99.90;;;;;;7329505;19;109165;-62
2023/03/22 03:09:36;;;;;;;;;;;11.80;99.90;;;;;;7328511;19;109381;-62
2023/03/22 03:12:07;;;;;;;;;;;11.80;99.90;;;;;;7330488;19;109218;-62
2023/03/22 03:14:34;;;;;;;;;;;11.80;99.90;;;;;;7329321;19;109215;-63
2023/03/22 03:17:14;;;;;;;;;;;11.80;99.90;;;;;;7326137;19;109157;-62
2023/03/22 03:19:56;;;;;;;;;;;11.80;99.90;;;;;;7329726;19;109961;-63
2023/03/22 03:22:49;;;;;;;;;;;11.80;99.90;;;;;;7332270;19;110316;-61
2023/03/22 03:25:25;;;;;;;;;;;11.80;99.90;;;;;;7333013;19;109185;-62
2023/03/22 03:28:07;;;;;;;;;;;11.80;99.90;;;;;;7331366;19;110305;-62
2023/03/22 03:30:55;;;;;;;;;;;11.80;99.90;;;;;;7330315;19;109230;-62
2023/03/22 03:33:29;;;;;;;;;;;11.80;99.90;;;;;;7328762;19;108959;-62
2023/03/22 03:35:59;;;;;;;;;;;11.80;99.90;;;;;;7330101;19;109304;-62
2023/03/22 03:38:29;;;;;;;;;;;11.80;99.90;;;;;;7328474;19;110265;-62
2023/03/22 03:41:08;;;;;;;;;;;11.80;99.90;;;;;;7334351;19;109070;-62
2023/03/22 03:43:36;;;;;;;;;;;11.80;99.90;;;;;;7337192;19;110386;-62
2023/03/22 03:46:03;;;;;;;;;;;11.80;99.90;;;;;;7340068;19;110095;-62
2023/03/22 03:48:32;;;;;;;;;;;11.80;99.90;;;;;;7340476;19;109109;-62
2023/03/22 03:51:00;;;;;;;;;;;11.80;99.90;;;;;;7336977;19;111189;-62
2023/03/22 03:53:28;;;;;;;;;;;11.80;99.90;;;;;;7336388;19;109260;-62
2023/03/22 03:55:55;;;;;;;;;;;11.80;99.90;;;;;;7337459;19;108369;-62
2023/03/22 03:58:22;;;;;;;;;;;11.80;99.90;;;;;;7338756;19;109342;-62
2023/03/22 04:00:49;;;;;;;;;;;11.70;99.90;;;;;;7334442;19;109690;-73
2023/03/22 04:03:16;;;;;;;;;;;11.70;99.90;;;;;;7334918;19;109146;-74
2023/03/22 04:05:43;;;;;;;;;;;11.70;99.90;;;;;;7334737;19;110206;-73
2023/03/22 04:08:10;;;;;;;;;;;11.70;99.90;;;;;;7339154;19;112145;-73
2023/03/22 04:10:38;;;;;;;;;;;11.60;99.90;;;;;;7340618;19;110313;-73
2023/03/22 04:13:05;;;;;;;;;;;11.70;99.90;;;;;;7338107;19;109462;-73
2023/03/22 04:15:32;;;;;;;;;;;11.60;99.90;;;;;;7339370;19;109344;-74
2023/03/22 04:17:59;;;;;;;;;;;11.60;99.90;;;;;;7342405;19;109148;-74
2023/03/22 04:20:26;;;;;;;;;;;11.60;99.90;;;;;;7337673;19;108541;-73
2023/03/22 04:22:53;;;;;;;;;;;11.60;99.90;;;;;;7339028;19;109539;-75
2023/03/22 04:25:21;;;;;;;;;;;11.60;99.90;;;;;;7336840;19;109840;-74
2023/03/22 04:27:50;;;;;;;;;;;11.60;99.90;;;;;;7336112;19;108683;-74
2023/03/22 04:30:18;;;;;;;;;;;11.60;99.90;;;;;;7341894;19;108880;-75
2023/03/22 04:32:46;;;;;;;;;;;11.60;99.90;;;;;;7336959;19;108466;-75
2023/03/22 04:35:13;;;;;;;;;;;11.60;99.90;;;;;;7337732;19;109411;-75
2023/03/22 04:37:41;;;;;;;;;;;11.60;99.90;;;;;;7334838;19;109538;-74
2023/03/22 04:40:15;;;;;;;;;;;11.60;99.90;;;;;;7341089;19;108902;-75
2023/03/22 04:42:43;;;;;;;;;;;11.60;99.90;;;;;;7337147;19;108939;-75
2023/03/22 04:45:10;;;;;;;;;;;11.60;99.90;;;;;;7337825;19;109443;-76
2023/03/22 04:47:37;;;;;;;;;;;11.60;99.90;;;;;;7337601;19;109549;-75
2023/03/22 04:50:05;;;;;;;;;;;11.60;99.90;;;;;;7340376;19;109168;-76
2023/03/22 04:52:36;;;;;;;;;;;11.60;99.90;;;;;;7339981;19;129659;-75
2023/03/22 04:55:03;;;;;;;;;;;11.60;99.90;;;;;;7339357;19;111974;-74
2023/03/22 04:57:30;;;;;;;;;;;11.60;99.90;;;;;;7334891;19;111556;-74
2023/03/22 04:59:57;;;;;;;;;;;11.60;99.90;;;;;;7337736;19;112887;-73
2023/03/22 05:02:24;;;;;;;;;;;11.60;99.90;;;;;;7338001;19;112223;-74
2023/03/22 05:04:51;;;;;;;;;;;11.60;99.90;;;;;;7336737;19;109136;-75
2023/03/22 05:07:18;;;;;;;;;;;11.60;99.90;;;;;;7335591;19;108496;-74
2023/03/22 05:09:45;;;;;;;;;;;11.60;99.90;;;;;;7336897;19;109513;-74
2023/03/22 05:12:12;;;;;;;;;;;11.60;99.90;;;;;;7338181;19;109850;-74
2023/03/22 05:14:39;;;;;;;;;;;11.70;99.90;;;;;;7343574;19;108471;-74
2023/03/22 05:17:06;;;;;;;;;;;11.70;99.90;;;;;;7337538;19;110218;-74
2023/03/22 05:19:33;;;;;;;;;;;11.70;99.90;;;;;;7339719;19;110512;-74
2023/03/22 05:22:00;;;;;;;;;;;11.70;99.90;;;;;;7337283;19;111091;-75
2023/03/22 05:24:29;;;;;;;;;;;11.70;99.90;;;;;;7338910;19;110429;-74
2023/03/22 05:26:59;;;;;;;;;;;11.70;99.90;;;;;;7337421;19;108575;-75
2023/03/22 05:29:27;;;;;;;;;;;11.70;99.90;;;;;;7337887;19;108549;-74
2023/03/22 05:31:54;;;;;;;;;;;11.70;99.90;;;;;;7336438;19;110470;-75
2023/03/22 05:34:21;;;;;;;;;;;11.70;99.90;;;;;;7338158;19;109776;-74
2023/03/22 05:36:50;;;;;;;;;;;11.70;99.90;;;;;;7345043;19;109596;-74
2023/03/22 05:39:17;;;;;;;;;;;11.70;99.90;;;;;;7336561;19;108419;-74
2023/03/22 05:41:44;;;;;;;;;;;11.70;99.90;;;;;;7338609;19;110274;-73
2023/03/22 05:44:11;;;;;;;;;;;11.70;99.90;;;;;;7335441;19;109020;-74
2023/03/22 05:46:38;;;;;;;;;;;11.70;99.90;;;;;;7336248;19;110419;-74
2023/03/22 05:49:05;;;;;;;;;;;11.70;99.90;;;;;;7335769;19;109559;-73
2023/03/22 05:51:35;;;;;;;;;;;11.70;99.90;;;;;;7337124;19;110541;-74
2023/03/22 05:54:02;;;;;;;;;;;11.70;99.90;;;;;;7333959;19;109912;-74
2023/03/22 05:56:29;;;;;;;;;;;11.80;99.90;;;;;;7340346;19;110119;-74
2023/03/22 05:58:57;;;;;;;;;;;11.80;99.90;;;;;;7336034;19;108285;-74
2023/03/22 06:01:24;;;;;;;;;;;11.70;99.90;;;;;;7335452;19;109631;-74
2023/03/22 06:03:51;;;;;;;;;;;11.80;99.90;;;;;;7333671;19;110296;-74
2023/03/22 06:06:18;;;;;;;;;;;11.80;99.90;;;;;;7332009;19;110036;-74
2023/03/22 06:08:45;;;;;;;;;;;11.80;99.90;;;;;;7336188;19;109222;-74
2023/03/22 06:11:12;;;;;;;;;;;11.80;99.90;;;;;;7332456;19;109890;-75
2023/03/22 06:13:39;;;;;;;;;;;11.80;99.90;;;;;;7335302;19;108815;-74
2023/03/22 06:16:06;;;;;;;;;;;11.80;99.90;;;;;;7337422;19;109236;-74
2023/03/22 06:18:33;;;;;;;;;;;11.90;99.90;;;;;;7339976;19;110009;-73
2023/03/22 06:21:00;;;;;;;;;;;11.80;99.90;;;;;;7336662;19;108615;-74
2023/03/22 06:23:27;;;;;;;;;;;11.90;99.90;;;;;;7333459;19;110360;-73
2023/03/22 06:25:54;;;;;;;;;;;11.90;99.90;;;;;;7333230;19;110971;-74
2023/03/22 06:28:21;;;;;;;;;;;12.00;99.90;;;;;;7332960;19;109616;-74
2023/03/22 06:30:48;;;;;;;;;;;12.00;99.90;;;;;;7336349;19;110229;-74
2023/03/22 06:33:15;;;;;;;;;;;12.00;99.90;;;;;;7336852;19;109235;-74
2023/03/22 06:35:42;;;;;;;;;;;12.00;99.90;;;;;;7330924;19;109867;-74
2023/03/22 06:38:09;;;;;;;;;;;12.00;99.90;;;;;;7333820;19;110410;-74
2023/03/22 06:40:36;;;;;;;;;;;12.00;99.90;;;;;;7338301;19;109302;-74
2023/03/22 06:43:03;;;;;;;;;;;12.00;99.90;;;;;;7334168;19;110191;-74
2023/03/22 06:45:32;;;;;;;;;;;12.00;99.90;;;;;;7335734;19;109052;-74
2023/03/22 06:47:59;;;;;;;;;;;12.00;99.90;;;;;;7334634;19;108405;-74
2023/03/22 06:50:27;;;;;;;;;;;12.10;99.90;;;;;;7336131;19;110251;-74
2023/03/22 06:52:54;;;;;;;;;;;12.10;99.90;;;;;;7336004;19;108981;-74
2023/03/22 06:55:21;;;;;;;;;;;12.10;99.90;;;;;;7335252;19;109595;-77
2023/03/22 06:57:48;;;;;;;;;;;12.10;99.90;;;;;;7331698;19;111389;-77
2023/03/22 07:00:15;;;;;;;;;;;12.20;99.90;;;;;;7335319;19;109159;-77
2023/03/22 07:02:42;;;;;;;;;;;12.20;99.90;;;;;;7341178;19;109224;-77
2023/03/22 07:05:09;;;;;;;;;;;12.20;99.90;;;;;;7332888;19;108671;-66
2023/03/22 07:07:36;;;;;;;;;;;12.30;99.90;;;;;;7330868;19;109771;-64
2023/03/22 07:10:03;;;;;;;;;;;12.30;99.90;;;;;;7332118;19;110241;-64
2023/03/22 07:12:30;;;;;;;;;;;12.30;99.90;;;;;;7332264;19;111557;-63
2023/03/22 07:14:57;;;;;;;;;;;12.30;99.90;;;;;;7335067;19;108236;-64
2023/03/22 07:17:24;;;;;;;;;;;12.30;99.90;;;;;;7334994;19;109175;-64
2023/03/22 07:19:52;;;;;;;;;;;12.40;99.90;;;;;;7332628;19;109088;-64
2023/03/22 07:22:21;;;;;;;;;;;12.50;99.90;;;;;;7335332;19;108470;-64
2023/03/22 07:24:48;;;;;;;;;;;12.50;99.90;;;;;;7340908;19;111916;-64
2023/03/22 07:27:24;;;;;;;;;;;12.50;99.90;;;;;;7335688;19;108621;-64
2023/03/22 07:29:51;;;;;;;;;;;12.60;99.90;;;;;;7333508;19;110448;-64
2023/03/22 07:32:18;;;;;;;;;;;12.60;99.90;;;;;;7333804;19;108703;-64
2023/03/22 07:34:45;;;;;;;;;;;12.70;99.90;;;;;;7334160;19;108712;-63
2023/03/22 07:37:12;;;;;;;;;;;12.70;99.90;;;;;;7332327;19;109794;-64
2023/03/22 07:39:39;;;;;;;;;;;12.80;99.90;;;;;;7335025;19;108724;-64
2023/03/22 07:42:06;;;;;;;;;;;12.90;99.90;;;;;;7332098;19;109226;-64
2023/03/22 07:44:33;;;;;;;;;;;13.00;99.90;;;;;;7334482;19;109266;-63
2023/03/22 07:47:00;;;;;;;;;;;13.20;99.90;;;;;;7339194;19;108965;-63
2023/03/22 07:49:29;;;;;;;;;;;13.20;99.90;;;;;;7335250;19;110271;-63
2023/03/22 07:51:56;;;;;;;;;;;13.30;99.90;;;;;;7334064;19;108720;-64
2023/03/22 07:54:23;;;;;;;;;;;13.40;99.90;;;;;;7332183;19;110067;-64
2023/03/22 07:57:00;;;;;;;;;;;13.40;99.90;;;;;;7335868;19;110184;-64
2023/03/22 07:59:27;;;;;;;;;;;13.40;99.90;;;;;;7333617;19;109265;-65
2023/03/22 08:01:54;;;;;;;;;;;13.40;99.90;;;;;;7336442;19;109552;-67
2023/03/22 08:04:21;;;;;;;;;;;13.50;99.90;;;;;;7331355;19;109143;-64
2023/03/22 08:06:48;;;;;;;;;;;13.60;99.90;;;;;;7335901;19;110232;-65
2023/03/22 08:09:15;;;;;;;;;;;13.60;99.90;;;;;;7316006;19;110217;-66
2023/03/22 08:11:43;;;;;;;;;;;13.50;99.90;;;;;;7328067;19;109611;-64
2023/03/22 08:14:10;;;;;;;;;;;13.50;99.90;;;;;;7335625;19;108476;-64
2023/03/22 08:16:37;;;;;;;;;;;13.50;99.90;;;;;;7332648;19;109261;-64
2023/03/22 08:19:04;;;;;;;;;;;13.70;99.90;;;;;;7335820;19;108675;-64
2023/03/22 08:21:31;;;;;;;;;;;13.80;99.90;;;;;;7333992;19;112777;-64
2023/03/22 08:23:58;;;;;;;;;;;13.90;99.90;;;;;;7333034;19;109030;-64
2023/03/22 08:26:26;;;;;;;;;;;13.90;99.90;;;;;;7336424;19;108940;-64
2023/03/22 08:28:53;;;;;;;;;;;13.90;99.90;;;;;;7345499;19;109815;-64
2023/03/22 08:31:20;;;;;;;;;;;13.90;99.90;;;;;;7339746;19;108402;-64
2023/03/22 08:33:48;;;;;;;;;;;13.90;99.90;;;;;;7340957;19;108645;-64
2023/03/22 08:36:16;;;;;;;;;;;13.90;99.90;;;;;;7337733;19;110022;-64
2023/03/22 08:38:44;;;;;;;;;;;14.00;99.90;;;;;;7339955;19;108785;-64
2023/03/22 08:41:11;;;;;;;;;;;14.00;99.90;;;;;;7341800;19;109081;-64
2023/03/22 08:43:38;;;;;;;;;;;14.00;99.90;;;;;;7337636;19;109313;-64
2023/03/22 08:46:06;;;;;;;;;;;14.00;99.90;;;;;;7342384;19;108952;-64
2023/03/22 08:48:34;;;;;;;;;;;14.10;99.90;;;;;;7341013;19;108630;-64
2023/03/22 08:51:01;;;;;;;;;;;14.00;99.90;;;;;;7345971;19;110544;-64
2023/03/22 08:53:28;;;;;;;;;;;14.10;99.90;;;;;;7338104;19;110654;-64
2023/03/22 08:55:56;;;;;;;;;;;14.10;99.90;;;;;;7339755;19;109911;-64
2023/03/22 08:58:23;;;;;;;;;;;14.10;99.90;;;;;;7339316;19;110281;-64
2023/03/22 09:00:50;;;;;;;;;;;14.10;99.90;;;;;;7334030;19;109948;-64
2023/03/22 09:03:18;;;;;;;;;;;14.30;99.90;;;;;;7338445;19;110675;-64
2023/03/22 09:05:45;;;;;;;;;;;14.30;99.90;;;;;;7339384;19;108890;-64
2023/03/22 09:08:12;;;;;;;;;;;14.40;99.90;;;;;;7339459;19;108478;-64
2023/03/22 09:10:50;;;;;;;;;;;14.20;99.90;;;;;;7337268;19;110995;-65
2023/03/22 09:13:18;;;;;;;;;;;14.20;99.90;;;;;;7343581;19;108292;-64
2023/03/22 09:15:45;;;;;;;;;;;14.20;99.90;;;;;;7335883;19;110373;-64
2023/03/22 09:18:12;;;;;;;;;;;14.10;99.90;;;;;;7338852;19;109435;-65
2023/03/22 09:20:40;;;;;;;;;;;14.10;99.90;;;;;;7338727;19;109489;-64
2023/03/22 09:23:07;;;;;;;;;;;14.10;99.90;;;;;;7339251;19;109334;-64
2023/03/22 09:25:34;;;;;;;;;;;14.10;99.90;;;;;;7338999;19;109742;-64
2023/03/22 09:28:02;;;;;;;;;;;14.10;99.90;;;;;;7340501;19;109408;-64
2023/03/22 09:30:29;;;;;;;;;;;14.20;99.90;;;;;;7337044;19;110273;-65
2023/03/22 09:32:56;;;;;;;;;;;14.10;99.90;;;;;;7336890;19;109424;-73
2023/03/22 09:35:23;;;;;;;;;;;14.00;99.90;;;;;;7342596;19;108548;-72
2023/03/22 09:37:53;;;;;;;;;;;14.00;99.90;;;;;;7337485;19;108548;-74
2023/03/22 09:40:28;;;;;;;;;;;14.10;99.90;;;;;;7335803;19;110458;-72
2023/03/22 09:43:01;;;;;;;;;;;14.10;99.90;;;;;;7339635;19;108613;-65
2023/03/22 09:45:36;;;;;;;;;;;14.00;99.90;;;;;;7338572;19;108562;-67
2023/03/22 09:48:05;;;;;;;;;;;13.90;99.90;;;;;;7341056;19;108226;-65
2023/03/22 09:53:15;;;;;;;;;;;13.90;99.90;;;;;;7335731;19;109047;-64
2023/03/22 09:55:45;;;;;;;;;;;13.90;99.90;;;;;;7338912;19;109918;-64
2023/03/22 09:58:15;;;;;;;;;;;13.90;99.90;;;;;;7337064;19;108641;-64
2023/03/22 10:00:50;;;;;;;;;;;13.90;99.90;;;;;;7336939;19;109384;-64
2023/03/22 10:03:36;;;;;;;;;;;13.80;99.90;;;;;;7338638;19;109693;-64
2023/03/22 10:06:08;;;;;;;;;;;13.70;99.90;;;;;;7340427;19;108971;-64
2023/03/22 10:08:42;;;;;;;;;;;13.70;99.90;;;;;;7335370;19;112171;-64
2023/03/22 10:11:14;;;;;;;;;;;13.60;99.90;;;;;;7338289;19;109710;-64
2023/03/22 10:14:04;;;;;;;;;;;13.60;99.90;;;;;;7335274;19;109616;-66
2023/03/22 10:16:33;;;;;;;;;;;13.50;99.90;;;;;;7333909;19;109022;-64
2023/03/22 10:19:05;;;;;;;;;;;13.50;99.90;;;;;;7342746;19;110278;-64
2023/03/22 10:21:33;;;;;;;;;;;13.50;99.90;;;;;;7335813;19;109707;-64
2023/03/22 10:24:09;;;;;;;;;;;13.50;99.90;;;;;;7336899;19;110027;-64
2023/03/22 10:26:38;;;;;;;;;;;13.50;99.90;;;;;;7335574;19;110059;-64
2023/03/22 10:29:14;;;;;;;;;;;13.40;99.90;;;;;;7336301;19;109694;-64
2023/03/22 10:31:43;;;;;;;;;;;13.40;99.90;;;;;;7332505;19;110076;-64
2023/03/22 10:34:15;;;;;;;;;;;13.40;99.90;;;;;;7338636;19;108897;-64
2023/03/22 10:36:43;;;;;;;;;;;13.50;99.90;;;;;;7334072;19;108848;-65
2023/03/22 10:39:23;;;;;;;;;;;13.60;99.90;;;;;;7332358;19;110281;-64
2023/03/22 10:41:52;;;;;;;;;;;13.50;99.90;;;;;;7342432;19;109110;-64
2023/03/22 10:44:20;;;;;;;;;;;13.40;99.90;;;;;;7334097;19;110042;-65
2023/03/22 10:46:48;;;;;;;;;;;13.50;99.90;;;;;;7333295;19;110363;-64
2023/03/22 10:49:22;;;;;;;;;;;13.50;99.90;;;;;;7330077;19;109037;-64
2023/03/22 10:51:56;;;;;;;;;;;13.60;99.90;;;;;;7334604;19;109196;-64
2023/03/22 10:54:24;;;;;;;;;;;13.50;99.90;;;;;;7336408;19;108479;-64
2023/03/22 10:56:51;;;;;;;;;;;13.50;99.90;;;;;;7336097;19;108806;-64
2023/03/22 10:59:37;;;;;;;;;;;13.60;99.90;;;;;;7336504;19;109259;-64
2023/03/22 11:02:04;;;;;;;;;;;13.60;99.90;;;;;;7334543;19;113344;-64
2023/03/22 11:04:32;;;;;;;;;;;13.60;99.90;;;;;;7341734;19;109150;-64
2023/03/22 11:06:59;;;;;;;;;;;13.60;99.90;;;;;;7336850;19;110388;-64
2023/03/22 11:09:26;;;;;;;;;;;13.60;99.90;;;;;;7334818;19;108654;-64
2023/03/22 11:11:54;;;;;;;;;;;13.70;99.90;;;;;;7334615;19;110698;-64
2023/03/22 11:14:24;;;;;;;;;;;13.70;99.90;;;;;;7336522;19;109291;-64
2023/03/22 11:16:56;;;;;;;;;;;13.70;99.90;;;;;;7336828;19;109532;-64
2023/03/22 11:19:27;;;;;;;;;;;13.70;99.90;;;;;;7331454;19;109174;-64
2023/03/22 11:21:56;;;;;;;;;;;13.70;99.90;;;;;;7335985;19;108833;-64
2023/03/22 11:24:27;;;;;;;;;;;13.80;99.90;;;;;;7333650;19;110591;-64
2023/03/22 11:27:05;;;;;;;;;;;13.80;99.90;;;;;;7338495;19;109840;-64
2023/03/22 11:29:43;;;;;;;;;;;13.80;99.90;;;;;;7333200;19;108600;-64
2023/03/22 11:32:29;;;;;;;;;;;13.80;99.90;;;;;;7332701;19;110598;-64
2023/03/22 11:35:01;;;;;;;;;;;13.70;99.90;;;;;;7335446;19;108366;-65
2023/03/22 11:37:28;;;;;;;;;;;13.80;99.90;;;;;;7334730;19;108785;-64
2023/03/22 11:40:03;;;;;;;;;;;13.70;99.90;;;;;;7335743;19;111740;-64
2023/03/22 11:42:32;;;;;;;;;;;13.70;99.90;;;;;;7335229;19;108674;-64
2023/03/22 11:44:59;;;;;;;;;;;13.70;99.90;;;;;;7332704;19;109554;-64
2023/03/22 11:47:29;;;;;;;;;;;13.80;99.90;;;;;;7338155;19;109871;-64
2023/03/22 11:49:56;;;;;;;;;;;13.90;99.90;;;;;;7336564;19;108617;-64
2023/03/22 11:52:25;;;;;;;;;;;13.90;99.90;;;;;;7335906;19;109234;-64
2023/03/22 11:54:53;;;;;;;;;;;13.90;99.90;;;;;;7332357;19;108672;-64
2023/03/22 11:57:22;;;;;;;;;;;14.00;99.90;;;;;;7333649;19;110610;-64
2023/03/22 12:00:00;;;;;;;;;;;14.10;99.90;;;;;;7332769;19;109457;-64
2023/03/22 12:02:33;;;;;;;;;;;14.10;99.90;;;;;;7341379;19;108371;-64
2023/03/22 12:05:06;;;;;;;;;;;14.10;99.90;;;;;;7339964;19;109060;-64
2023/03/22 12:07:34;;;;;;;;;;;14.20;99.90;;;;;;7336664;19;109291;-64
2023/03/22 12:10:01;;;;;;;;;;;14.30;99.90;;;;;;7347538;19;108571;-64
2023/03/22 12:12:30;;;;;;;;;;;14.40;99.90;;;;;;7337993;19;109106;-65
2023/03/22 12:15:03;;;;;;;;;;;14.40;99.90;;;;;;7342729;19;109092;-64
2023/03/22 12:17:33;;;;;;;;;;;14.50;99.90;;;;;;7337606;19;108326;-64
2023/03/22 12:20:26;;;;;;;;;;;14.60;99.90;;;;;;7340936;19;109408;-65
2023/03/22 12:22:54;;;;;;;;;;;14.50;99.90;;;;;;7339664;19;109063;-64
2023/03/22 12:25:23;;;;;;;;;;;14.60;99.90;;;;;;7340963;19;108731;-64
2023/03/22 12:27:53;;;;;;;;;;;14.60;99.90;;;;;;7339189;19;109218;-64
2023/03/22 12:30:32;;;;;;;;;;;14.60;99.90;;;;;;7340818;19;108979;-64
2023/03/22 12:33:10;;;;;;;;;;;14.50;99.90;;;;;;7346959;19;109265;-64
2023/03/22 12:35:40;;;;;;;;;;;14.40;99.90;;;;;;7337896;19;109976;-64
2023/03/22 12:38:19;;;;;;;;;;;14.40;99.90;;;;;;7339892;19;108936;-64
2023/03/22 12:40:47;;;;;;;;;;;14.40;99.90;;;;;;7336223;19;109240;-64
2023/03/22 12:43:23;;;;;;;;;;;14.40;99.90;;;;;;7341225;19;109182;-64
2023/03/22 12:45:53;;;;;;;;;;;14.30;99.90;;;;;;7335338;19;109230;-64
2023/03/22 12:48:20;;;;;;;;;;;14.30;99.90;;;;;;7339688;19;110184;-64
2023/03/22 12:50:51;;;;;;;;;;;14.20;99.90;;;;;;7337537;19;109343;-65
2023/03/22 12:53:19;;;;;;;;;;;14.20;99.90;;;;;;7341694;19;110002;-64
2023/03/22 12:55:47;;;;;;;;;;;14.10;99.90;;;;;;7344863;19;109246;-64
2023/03/22 12:58:17;;;;;;;;;;;14.10;99.90;;;;;;7339791;19;109677;-65
2023/03/22 13:00:53;;;;;;;;;;;14.20;99.90;;;;;;7339338;19;110433;-65
2023/03/22 13:03:26;;;;;;;;;;;14.20;99.90;;;;;;7339760;19;108319;-64
2023/03/22 13:06:04;;;;;;;;;;;14.30;99.90;;;;;;7339258;19;109448;-64
2023/03/22 13:08:57;;;;;;;;;;;14.20;99.90;;;;;;7337211;19;110275;-64
2023/03/22 13:11:24;;;;;;;;;;;14.20;99.90;;;;;;7337227;19;108596;-64
2023/03/22 13:13:50;;;;;;;;;;;14.20;99.90;;;;;;7336406;19;108735;-64
2023/03/22 13:16:21;;;;;;;;;;;14.20;99.90;;;;;;7340530;19;109636;-64
2023/03/22 13:18:48;;;;;;;;;;;14.20;99.90;;;;;;7349688;19;109341;-64
2023/03/22 13:21:16;;;;;;;;;;;14.20;99.90;;;;;;7333986;19;109286;-64
2023/03/22 13:23:52;;;;;;;;;;;14.20;99.90;;;;;;7339619;19;108309;-64
2023/03/22 13:26:21;;;;;;;;;;;14.20;99.90;;;;;;7338094;19;109709;-70
2023/03/22 13:28:59;;;;;;;;;;;14.30;99.90;;;;;;7332588;19;109087;-65
2023/03/22 13:31:37;;;;;;;;;;;14.20;99.90;;;;;;7337207;19;111719;-65
2023/03/22 13:34:11;;;;;;;;;;;14.10;99.90;;;;;;7338036;19;109347;-69
2023/03/22 13:36:38;;;;;;;;;;;14.20;99.90;;;;;;7334859;19;109615;-65
2023/03/22 13:39:11;;;;;;;;;;;14.20;99.90;;;;;;7335243;19;109378;-64
2023/03/22 13:41:38;;;;;;;;;;;14.20;99.90;;;;;;7338242;19;109392;-65
2023/03/22 13:44:20;;;;;;;;;;;14.10;99.90;;;;;;7337053;19;110428;-64
2023/03/22 13:46:51;;;;;;;;;;;14.10;99.90;;;;;;7336816;19;109656;-65
2023/03/22 13:49:19;;;;;;;;;;;14.00;99.90;;;;;;7338192;19;109767;-64
2023/03/22 13:51:47;;;;;;;;;;;14.00;99.90;;;;;;7337399;19;109524;-64
2023/03/22 13:54:17;;;;;;;;;;;14.10;99.90;;;;;;7338343;19;110190;-64
2023/03/22 13:56:47;;;;;;;;;;;14.00;99.90;;;;;;7337745;19;109181;-64
2023/03/22 13:59:31;;;;;;;;;;;14.00;99.90;;;;;;7339982;19;111099;-64
2023/03/22 14:02:15;;;;;;;;;;;14.00;99.90;;;;;;7335864;19;110463;-64
2023/03/22 14:04:44;;;;;;;;;;;14.00;99.90;;;;;;7342676;19;109894;-64
2023/03/22 14:07:30;;;;;;;;;;;14.10;99.90;;;;;;7338027;19;110569;-64
2023/03/22 14:10:01;;;;;;;;;;;14.10;99.90;;;;;;7336806;19;110528;-64
2023/03/22 14:12:44;;;;;;;;;;;14.20;99.90;;;;;;7337126;19;108283;-64
2023/03/22 14:15:14;;;;;;;;;;;14.20;99.90;;;;;;7338562;19;108738;-64
2023/03/22 14:18:00;;;;;;;;;;;14.20;99.90;;;;;;7334189;19;109447;-64
2023/03/22 14:20:30;;;;;;;;;;;14.30;99.90;;;;;;7338566;19;108402;-72
2023/03/22 14:23:00;;;;;;;;;;;14.40;99.90;;;;;;7337372;19;108991;-70